createdAt,value
2022-11-09T00:04:52.854Z,100701.14
2022-11-09T00:14:54.709Z,100689.03
2022-11-09T00:24:56.789Z,100696.95
2022-11-09T00:34:58.810Z,100703.58
2022-11-09T00:45:02.492Z,100707.19
2022-11-09T00:55:05.123Z,100697.55
2022-11-09T01:05:07.748Z,100696.38
2022-11-09T01:15:10.289Z,100695.95
2022-11-09T01:25:12.288Z,100692.39
2022-11-09T01:35:14.420Z,100689.95
2022-11-09T01:45:21.617Z,100687.07
2022-11-09T01:55:25.066Z,100691.67
2022-11-09T02:05:30.087Z,100682.85
2022-11-09T02:27:09.317Z,100676.02
2022-11-09T02:37:12.817Z,100667.04
2022-11-09T02:47:15.342Z,100656.27
2022-11-09T02:57:17.668Z,100647.34
2022-11-09T03:07:19.868Z,100648.30
2022-11-09T03:17:22.222Z,100657.77
2022-11-09T03:27:26.129Z,100655.77
2022-11-09T03:37:28.232Z,100654.98
2022-11-09T03:47:30.359Z,100653.42
2022-11-09T03:57:32.361Z,100645.88
2022-11-09T04:07:34.297Z,100648.39
2022-11-09T04:17:36.262Z,100645.40
2022-11-09T04:27:38.145Z,100637.31
2022-11-09T04:37:40.148Z,100635.63
2022-11-09T04:47:42.151Z,100635.73
2022-11-09T04:57:44.323Z,100635.30
2022-11-09T05:07:46.560Z,100632.38
2022-11-09T05:17:48.464Z,100634.50
2022-11-09T05:27:50.409Z,100627.23
2022-11-09T05:37:52.467Z,100632.80
2022-11-09T05:47:54.321Z,100635.23
2022-11-09T05:57:56.818Z,100631.43
2022-11-09T06:08:04.633Z,100634.36
2022-11-09T06:18:06.990Z,100637.21
2022-11-09T06:28:09.389Z,100640.88
2022-11-09T06:38:11.856Z,100642.45
2022-11-09T06:48:14.331Z,100643.56
2022-11-09T06:58:16.746Z,100644.97
2022-11-09T07:08:19.580Z,100638.25
2022-11-09T07:18:21.561Z,100643.29
2022-11-09T07:28:23.472Z,100647.80
2022-11-09T07:38:25.711Z,100647.33
2022-11-09T07:48:27.617Z,100632.00
2022-11-09T07:58:30.471Z,100628.62
2022-11-09T08:08:32.414Z,100620.06
2022-11-09T08:18:34.335Z,100611.08
2022-11-09T08:28:36.283Z,100609.85
2022-11-09T08:38:39.090Z,100613.48
2022-11-09T08:48:41.056Z,100611.83
2022-11-09T08:58:42.895Z,100622.59
2022-11-09T09:08:44.929Z,100615.77
2022-11-09T09:18:48.541Z,100609.16
2022-11-09T09:28:51.623Z,100610.84
2022-11-09T09:38:54.866Z,100606.19
2022-11-09T09:49:09.747Z,100597.94
2022-11-09T09:59:24.548Z,100602.63
2022-11-09T10:09:51.524Z,100606.94
2022-11-09T10:20:01.456Z,100611.66
2022-11-09T10:30:15.375Z,100605.23
2022-11-09T10:40:23.244Z,100593.79
2022-11-09T10:50:52.865Z,100592.04
2022-11-09T11:01:38.630Z,100592.30
2022-11-09T11:12:20.442Z,100583.98
2022-11-09T11:22:41.306Z,100579.08
2022-11-09T11:33:03.119Z,100571.41
2022-11-09T11:43:48.348Z,100583.52
2022-11-09T11:54:39.387Z,100573.95
2022-11-09T12:05:36.797Z,100564.23
2022-11-09T12:16:07.818Z,100569.95
2022-11-09T12:26:41.088Z,100570.73
2022-11-09T12:37:03.270Z,100572.20
2022-11-09T12:47:30.871Z,100564.88
2022-11-09T12:57:51.886Z,100564.39
2022-11-09T13:08:29.359Z,100567.23
2022-11-09T13:18:52.482Z,100567.85
2022-11-09T13:29:12.801Z,100570.01
2022-11-09T13:39:39.113Z,100567.41
2022-11-09T13:49:59.885Z,100564.41
2022-11-09T14:00:23.861Z,100560.48
2022-11-09T14:11:00.178Z,100557.48
2022-11-09T14:21:47.674Z,100558.94
2022-11-09T14:32:34.139Z,100550.12
2022-11-09T14:43:00.322Z,100556.89
2022-11-09T14:53:35.519Z,100571.64
2022-11-09T15:04:12.713Z,100582.26
2022-11-09T15:14:35.656Z,100584.52
2022-11-09T15:24:56.146Z,100583.04
2022-11-09T15:35:18.529Z,100580.52
2022-11-09T15:45:39.954Z,100590.96
2022-11-09T15:56:01.468Z,100585.31
2022-11-09T16:06:24.918Z,100582.31
2022-11-09T16:16:45.221Z,100587.18
2022-11-09T16:27:12.759Z,100574.34
2022-11-09T16:37:44.855Z,100587.97
2022-11-09T16:48:11.823Z,100578.95
2022-11-09T16:58:32.472Z,100578.95
2022-11-09T17:08:57.125Z,100580.57
2022-11-09T17:19:17.727Z,100582.22
2022-11-09T17:29:39.251Z,100578.50
2022-11-09T17:40:00.101Z,100575.71
2022-11-09T17:50:21.625Z,100565.97
2022-11-09T18:00:42.945Z,100572.73
2022-11-09T18:11:03.467Z,100577.53
2022-11-09T18:21:25.644Z,100576.77
2022-11-09T18:31:46.748Z,100572.70
2022-11-09T18:42:10.430Z,100573.98
2022-11-09T18:52:33.449Z,100570.75
2022-11-09T19:02:54.443Z,100570.21
2022-11-09T19:13:15.393Z,100577.90
2022-11-09T19:23:36.350Z,100587.80
2022-11-09T19:33:58.017Z,100602.80
2022-11-09T19:44:19.006Z,100605.11
2022-11-09T19:54:47.331Z,100610.48
2022-11-09T20:05:09.482Z,100616.77
2022-11-09T20:15:32.064Z,100612.92
2022-11-09T20:25:53.405Z,100612.54
2022-11-09T20:36:15.218Z,100615.41
2022-11-09T20:46:36.921Z,100616.23
2022-11-09T20:56:57.847Z,100611.30
2022-11-09T21:07:18.682Z,100606.33
2022-11-09T21:17:38.987Z,100605.53
2022-11-09T21:28:18.411Z,100606.33
2022-11-09T21:38:39.641Z,100600.87
2022-11-09T21:49:00.021Z,100597.91
2022-11-09T21:59:20.931Z,100599.38
2022-11-09T22:10:08.276Z,100602.20
2022-11-09T22:20:41.310Z,100606.77
2022-11-09T22:31:03.460Z,100608.63
2022-11-09T22:41:24.758Z,100615.41
2022-11-09T22:51:45.347Z,100613.13
2022-11-09T23:02:05.758Z,100609.02
2022-11-09T23:12:26.611Z,100605.54
2022-11-09T23:22:47.924Z,100599.13
2022-11-09T23:33:08.461Z,100602.80
2022-11-09T23:43:29.634Z,100598.63
2022-11-09T23:53:49.980Z,100610.81
